createdAt,value
2019-01-24T00:02:24.809Z,33.53
2019-01-24T00:05:14.642Z,33.07
2019-01-24T00:08:04.485Z,33.30
2019-01-24T00:13:47.304Z,35.03
2019-01-24T00:16:37.335Z,34.50
2019-01-24T00:19:19.716Z,34.73
2019-01-24T00:22:09.794Z,34.63
2019-01-24T00:24:52.839Z,34.70
2019-01-24T00:27:43.260Z,35.13
2019-01-24T00:30:24.670Z,35.53
2019-01-24T00:33:07.038Z,34.67
2019-01-24T00:35:56.886Z,35.93
2019-01-24T00:38:46.884Z,34.63
2019-01-24T00:41:36.772Z,33.07
2019-01-24T00:44:26.691Z,36.33
2019-01-24T00:50:12.831Z,34.90
2019-01-24T00:53:02.626Z,34.47
2019-01-24T00:55:49.157Z,35.07
2019-01-24T00:58:38.920Z,36.83
2019-01-24T01:01:21.692Z,35.07
2019-01-24T01:04:11.748Z,37.03
2019-01-24T01:06:54.172Z,35.77
2019-01-24T01:09:37.156Z,34.50
2019-01-24T01:12:27.014Z,33.67
2019-01-24T01:18:32.851Z,34.93
2019-01-24T01:21:22.691Z,35.50
2019-01-24T01:24:12.538Z,36.37
2019-01-24T01:27:02.398Z,35.27
2019-01-24T01:29:52.193Z,35.93
2019-01-24T01:32:42.050Z,35.40
2019-01-24T01:35:31.926Z,35.27
2019-01-24T01:38:21.718Z,36.03
2019-01-24T01:41:03.726Z,36.10
2019-01-24T01:43:34.466Z,36.43
2019-01-24T01:46:24.343Z,36.57
2019-01-24T01:49:07.692Z,35.13
2019-01-24T01:51:57.502Z,37.43
2019-01-24T01:54:47.340Z,37.43
2019-01-24T02:00:26.912Z,35.10
2019-01-24T02:03:16.713Z,35.17
2019-01-24T02:05:58.648Z,38.77
2019-01-24T02:08:48.413Z,36.80
2019-01-24T02:11:30.722Z,35.43
2019-01-24T02:14:20.526Z,37.73
2019-01-24T02:17:02.844Z,37.67
2019-01-24T02:19:52.638Z,36.90
2019-01-24T02:22:42.398Z,37.17
2019-01-24T02:25:26.363Z,38.70
2019-01-24T02:28:16.449Z,38.00
2019-01-24T02:31:00.766Z,38.57
2019-01-24T02:33:50.556Z,37.73
2019-01-24T02:36:37.006Z,39.03
2019-01-24T02:39:26.772Z,36.60
2019-01-24T02:42:13.540Z,37.13
2019-01-24T02:44:56.211Z,36.87
2019-01-24T02:47:46.052Z,38.23
2019-01-24T02:50:35.828Z,38.17
2019-01-24T02:53:18.029Z,37.40
2019-01-24T02:56:07.879Z,36.43
2019-01-24T02:58:57.893Z,37.97
2019-01-24T03:01:47.808Z,38.53
2019-01-24T03:04:37.641Z,38.63
2019-01-24T03:07:30.267Z,36.33
2019-01-24T03:10:20.254Z,37.97
2019-01-24T03:13:10.028Z,38.03
2019-01-24T03:15:53.086Z,37.70
2019-01-24T03:18:42.929Z,39.43
2019-01-24T03:21:32.820Z,37.70
2019-01-24T03:24:15.689Z,37.80
2019-01-24T03:27:05.715Z,39.23
2019-01-24T03:30:08.330Z,38.23
2019-01-24T03:32:52.644Z,36.47
2019-01-24T03:35:42.360Z,37.43
2019-01-24T03:38:31.834Z,37.00
2019-01-24T03:41:22.142Z,36.67
2019-01-24T03:44:06.015Z,32.67
2019-01-24T03:46:55.781Z,37.33
2019-01-24T03:49:37.981Z,36.17
2019-01-24T03:52:28.130Z,36.57
2019-01-24T03:55:11.953Z,34.77
2019-01-24T03:58:01.739Z,36.13
2019-01-24T04:00:44.587Z,35.43
2019-01-24T04:03:34.391Z,33.73
2019-01-24T04:06:17.267Z,34.03
2019-01-24T04:08:48.001Z,35.50
2019-01-24T04:11:37.772Z,34.57
2019-01-24T04:14:22.559Z,34.37
2019-01-24T04:17:04.568Z,36.20
2019-01-24T04:19:54.482Z,36.27
2019-01-24T04:22:44.293Z,37.27
2019-01-24T04:25:34.103Z,35.77
2019-01-24T04:28:23.976Z,35.97
2019-01-24T04:31:14.399Z,36.27
2019-01-24T04:34:04.361Z,36.70
2019-01-24T04:36:54.783Z,38.50
2019-01-24T04:39:44.648Z,36.97
2019-01-24T04:42:34.464Z,36.03
2019-01-24T04:45:24.764Z,37.53
2019-01-24T04:48:14.501Z,37.13
2019-01-24T04:51:04.303Z,37.80
2019-01-24T04:53:46.631Z,36.00
2019-01-24T04:56:36.433Z,38.23
2019-01-24T04:59:26.357Z,36.70
2019-01-24T05:02:11.057Z,36.37
2019-01-24T05:05:00.887Z,37.73
2019-01-24T05:07:50.675Z,37.97
2019-01-24T05:13:46.379Z,36.93
2019-01-24T05:16:30.144Z,37.27
2019-01-24T05:19:19.983Z,35.30
2019-01-24T05:22:09.971Z,35.40
2019-01-24T05:24:59.793Z,36.63
2019-01-24T05:27:49.694Z,37.00
2019-01-24T05:30:32.247Z,39.23
2019-01-24T05:33:22.146Z,38.33
2019-01-24T05:36:12.026Z,38.87
2019-01-24T05:39:01.851Z,40.07
2019-01-24T05:41:51.659Z,39.43
2019-01-24T05:44:41.465Z,38.97
2019-01-24T05:47:31.276Z,37.97
2019-01-24T05:50:21.272Z,38.23
2019-01-24T05:53:11.212Z,38.93
2019-01-24T05:56:01.559Z,37.80
2019-01-24T05:58:51.319Z,37.17
2019-01-24T06:04:37.784Z,36.73
2019-01-24T06:07:27.566Z,35.97
2019-01-24T06:10:12.681Z,37.47
2019-01-24T06:13:02.459Z,36.10
2019-01-24T06:15:44.684Z,36.47
2019-01-24T06:18:34.788Z,36.70
2019-01-24T06:24:14.378Z,36.50
2019-01-24T06:27:04.189Z,37.27
2019-01-24T06:29:48.671Z,38.00
2019-01-24T06:32:33.092Z,37.47
2019-01-24T06:35:48.460Z,36.00
2019-01-24T06:38:27.280Z,36.60
2019-01-24T06:41:29.827Z,36.80
2019-01-24T06:44:16.914Z,36.17
2019-01-24T06:47:06.656Z,34.57
2019-01-24T06:49:56.718Z,36.20
2019-01-24T06:52:39.109Z,35.00
2019-01-24T06:55:29.760Z,37.27
2019-01-24T06:58:19.618Z,38.70
2019-01-24T07:01:09.901Z,36.80
2019-01-24T07:04:00.130Z,38.13
2019-01-24T07:06:50.340Z,38.87
2019-01-24T07:09:40.497Z,37.33
2019-01-24T07:12:30.316Z,37.73
2019-01-24T07:15:15.868Z,38.87
2019-01-24T07:17:58.580Z,37.43
2019-01-24T07:23:37.390Z,39.00
2019-01-24T07:26:20.375Z,37.40
2019-01-24T07:29:10.129Z,38.97
2019-01-24T07:31:59.895Z,38.13
2019-01-24T07:34:49.715Z,39.43
2019-01-24T07:37:32.004Z,37.80
2019-01-24T07:40:21.832Z,40.50
2019-01-24T07:43:04.391Z,40.13
2019-01-24T07:45:38.696Z,40.60
2019-01-24T07:48:28.652Z,41.03
2019-01-24T07:51:12.397Z,40.67
2019-01-24T07:54:02.209Z,39.20
2019-01-24T07:56:52.013Z,38.83
2019-01-24T07:59:35.606Z,40.27
2019-01-24T08:02:25.392Z,41.67
2019-01-24T08:05:13.629Z,38.53
2019-01-24T08:08:22.561Z,38.20
2019-01-24T08:11:12.321Z,40.97
2019-01-24T08:13:56.080Z,40.60
2019-01-24T08:16:38.479Z,39.67
2019-01-24T08:19:28.331Z,39.77
2019-01-24T08:22:18.151Z,42.70
2019-01-24T08:25:08.857Z,43.23
2019-01-24T08:27:50.926Z,42.97
2019-01-24T08:30:40.687Z,42.60
2019-01-24T08:33:30.465Z,41.63
2019-01-24T08:36:15.620Z,41.07
2019-01-24T08:39:25.273Z,40.37
2019-01-24T08:42:15.284Z,40.97
2019-01-24T08:45:05.765Z,43.33
2019-01-24T08:47:56.411Z,42.90
2019-01-24T08:50:47.122Z,43.37
2019-01-24T08:53:37.096Z,42.90
2019-01-24T08:59:30.673Z,41.30
2019-01-24T09:02:13.656Z,41.90
2019-01-24T09:05:03.505Z,42.67
2019-01-24T09:07:53.288Z,42.97
2019-01-24T09:10:43.094Z,41.43
2019-01-24T09:13:32.975Z,39.67
2019-01-24T09:16:22.759Z,40.93
2019-01-24T09:22:04.387Z,43.23
2019-01-24T09:24:54.156Z,41.67
2019-01-24T09:27:36.204Z,39.77
2019-01-24T09:33:18.208Z,40.97
2019-01-24T09:36:08.153Z,41.10
2019-01-24T09:38:57.954Z,41.93
2019-01-24T09:41:44.506Z,40.53
2019-01-24T09:44:27.071Z,41.87
2019-01-24T09:49:58.548Z,41.23
2019-01-24T09:52:49.212Z,41.50
2019-01-24T09:55:31.318Z,43.30
2019-01-24T09:58:21.123Z,41.57
2019-01-24T10:01:03.708Z,42.80
2019-01-24T10:03:53.636Z,39.40
2019-01-24T10:06:36.433Z,38.23
2019-01-24T10:09:26.345Z,33.63
2019-01-24T10:12:08.325Z,33.30
2019-01-24T10:14:58.185Z,31.67
2019-01-24T10:17:48.014Z,31.83
2019-01-24T10:20:31.212Z,28.57
2019-01-24T10:26:08.016Z,28.37
2019-01-24T10:28:57.768Z,26.07
2019-01-24T10:31:40.356Z,24.20
2019-01-24T10:34:30.122Z,22.43
2019-01-24T10:37:12.226Z,24.87
2019-01-24T10:40:02.158Z,21.57
2019-01-24T10:42:44.866Z,22.07
2019-01-24T10:45:34.619Z,20.17
2019-01-24T10:48:18.992Z,21.03
2019-01-24T10:51:08.732Z,20.73
2019-01-24T10:53:51.234Z,18.07
2019-01-24T10:59:36.906Z,16.80
2019-01-24T11:02:26.689Z,16.10
2019-01-24T11:05:16.998Z,14.23
2019-01-24T11:08:06.998Z,15.47
2019-01-24T11:10:56.767Z,17.77
2019-01-24T11:13:46.502Z,23.60
2019-01-24T11:16:28.987Z,16.33
2019-01-24T11:22:21.874Z,16.47
2019-01-24T11:25:04.101Z,17.00
2019-01-24T11:27:54.022Z,14.87
2019-01-24T11:30:43.783Z,14.23
2019-01-24T11:33:33.516Z,12.90
2019-01-24T11:36:15.708Z,13.23
2019-01-24T11:42:28.927Z,14.37
2019-01-24T11:45:11.796Z,15.50
2019-01-24T11:50:45.527Z,14.60
2019-01-24T11:53:35.220Z,13.27
2019-01-24T11:56:17.270Z,12.30
2019-01-24T11:59:07.028Z,14.37
2019-01-24T12:01:49.619Z,14.37
2019-01-24T12:04:39.360Z,13.67
2019-01-24T12:10:24.119Z,15.83
2019-01-24T12:13:13.852Z,15.03
2019-01-24T12:18:59.874Z,13.87
2019-01-24T12:24:45.898Z,13.93
2019-01-24T12:27:28.291Z,15.07
2019-01-24T12:30:20.544Z,14.37
2019-01-24T12:36:06.425Z,13.10
2019-01-24T12:38:56.168Z,12.97
2019-01-24T12:41:38.282Z,12.90
2019-01-24T12:44:28.113Z,12.13
2019-01-24T12:47:10.353Z,12.57
2019-01-24T12:50:00.163Z,11.50
2019-01-24T12:52:42.319Z,12.57
2019-01-24T12:55:25.144Z,13.17
2019-01-24T12:58:15.073Z,12.50
2019-01-24T13:00:57.429Z,12.97
2019-01-24T13:03:47.368Z,12.20
2019-01-24T13:06:37.216Z,12.47
2019-01-24T13:09:27.010Z,14.10
2019-01-24T13:12:16.779Z,15.00
2019-01-24T13:15:07.363Z,15.17
2019-01-24T13:17:57.153Z,16.80
2019-01-24T13:20:46.933Z,17.07
2019-01-24T13:23:36.653Z,16.60
2019-01-24T13:26:18.703Z,15.70
2019-01-24T13:29:08.481Z,17.70
2019-01-24T13:31:58.381Z,15.93
2019-01-24T13:34:48.085Z,17.03
2019-01-24T13:37:37.839Z,17.30
2019-01-24T13:40:29.357Z,16.60
2019-01-24T13:43:11.924Z,17.57
2019-01-24T13:46:01.679Z,16.17
2019-01-24T13:48:32.375Z,17.23
2019-01-24T13:51:22.132Z,17.37
2019-01-24T13:54:05.838Z,16.50
2019-01-24T13:56:55.562Z,16.53
2019-01-24T13:59:37.869Z,16.30
2019-01-24T14:02:27.850Z,16.53
2019-01-24T14:05:38.410Z,16.33
2019-01-24T14:08:20.776Z,15.50
2019-01-24T14:11:10.680Z,15.77
2019-01-24T14:16:45.072Z,14.83
2019-01-24T14:19:34.850Z,15.53
2019-01-24T14:22:32.375Z,15.00
2019-01-24T14:25:22.190Z,16.37
2019-01-24T14:28:12.083Z,16.57
2019-01-24T14:31:01.873Z,15.57
2019-01-24T14:33:51.686Z,16.33
2019-01-24T14:36:41.480Z,15.57
2019-01-24T14:39:43.992Z,17.93
2019-01-24T14:42:26.288Z,15.00
2019-01-24T14:45:18.573Z,15.10
2019-01-24T14:48:00.676Z,15.80
2019-01-24T14:50:53.398Z,16.50
2019-01-24T14:53:36.329Z,15.80
2019-01-24T14:56:26.068Z,16.37
2019-01-24T14:59:10.574Z,13.77
2019-01-24T15:02:00.365Z,14.83
2019-01-24T15:04:43.222Z,13.50
2019-01-24T15:07:32.982Z,13.83
2019-01-24T15:10:15.466Z,13.10
2019-01-24T15:13:26.022Z,13.73
2019-01-24T15:16:15.838Z,14.03
2019-01-24T15:19:05.774Z,12.40
2019-01-24T15:24:59.440Z,13.27
2019-01-24T15:27:42.185Z,13.93
2019-01-24T15:30:32.018Z,12.83
2019-01-24T15:33:21.905Z,13.97
2019-01-24T15:36:11.668Z,13.63
2019-01-24T15:38:54.104Z,13.40
2019-01-24T15:45:08.205Z,12.00
2019-01-24T15:47:58.128Z,12.37
2019-01-24T15:50:28.838Z,12.00
2019-01-24T15:53:18.611Z,11.97
2019-01-24T15:56:01.678Z,13.03
2019-01-24T16:01:36.200Z,11.70
2019-01-24T16:04:26.006Z,12.90
2019-01-24T16:07:15.145Z,11.93
2019-01-24T16:09:56.503Z,12.07
2019-01-24T16:12:39.063Z,13.53
2019-01-24T16:15:34.123Z,12.83
2019-01-24T16:18:17.850Z,13.00
2019-01-24T16:21:07.616Z,13.73
2019-01-24T16:23:49.896Z,13.70
2019-01-24T16:26:39.685Z,12.90
2019-01-24T16:29:28.696Z,14.80
2019-01-24T16:32:18.538Z,12.83
2019-01-24T16:35:01.144Z,15.27
2019-01-24T16:37:50.911Z,14.70
2019-01-24T16:40:32.846Z,14.33
2019-01-24T16:43:15.161Z,14.60
2019-01-24T16:46:05.009Z,15.43
2019-01-24T16:48:54.854Z,16.30
2019-01-24T16:51:44.885Z,15.87
2019-01-24T16:54:34.759Z,15.63
2019-01-24T16:57:25.999Z,16.63
2019-01-24T16:59:56.775Z,16.87
2019-01-24T17:02:46.537Z,16.30
2019-01-24T17:05:28.474Z,15.60
2019-01-24T17:08:18.258Z,15.00
2019-01-24T17:11:02.752Z,15.47
2019-01-24T17:13:52.525Z,15.23
2019-01-24T17:16:36.245Z,15.17
2019-01-24T17:19:26.029Z,16.40
2019-01-24T17:22:09.377Z,15.23
2019-01-24T17:24:59.623Z,15.13
2019-01-24T17:27:46.026Z,14.87
2019-01-24T17:30:34.945Z,14.47
2019-01-24T17:33:21.944Z,14.87
2019-01-24T17:36:06.344Z,14.70
2019-01-24T17:38:52.844Z,15.60
2019-01-24T17:41:35.288Z,15.90
2019-01-24T17:44:25.131Z,15.70
2019-01-24T17:47:07.055Z,14.93
2019-01-24T17:49:56.859Z,17.10
2019-01-24T17:52:39.315Z,15.43
2019-01-24T17:55:48.495Z,17.03
2019-01-24T17:58:34.756Z,15.87
2019-01-24T18:01:24.912Z,16.07
2019-01-24T18:04:07.582Z,15.17
2019-01-24T18:06:57.366Z,14.70
2019-01-24T18:09:41.857Z,16.57
2019-01-24T18:12:31.999Z,15.17
2019-01-24T18:15:02.885Z,14.90
2019-01-24T18:17:53.648Z,15.37
2019-01-24T18:23:39.317Z,14.97
2019-01-24T18:26:29.113Z,15.23
2019-01-24T18:29:11.128Z,16.30
2019-01-24T18:32:00.909Z,19.47
2019-01-24T18:34:43.479Z,15.53
2019-01-24T18:37:33.223Z,14.97
2019-01-24T18:40:16.786Z,16.03
2019-01-24T18:43:10.343Z,15.57
2019-01-24T18:48:50.773Z,14.40
2019-01-24T18:51:32.927Z,15.47
2019-01-24T18:54:22.680Z,16.53
2019-01-24T18:57:05.192Z,15.43
2019-01-24T18:59:55.050Z,14.73
2019-01-24T19:02:44.866Z,14.87
2019-01-24T19:05:34.717Z,15.40
2019-01-24T19:08:24.920Z,14.60
2019-01-24T19:10:55.602Z,15.53
2019-01-24T19:17:04.630Z,14.53
2019-01-24T19:19:54.424Z,13.53
2019-01-24T19:22:44.195Z,14.47
2019-01-24T19:25:27.756Z,15.70
2019-01-24T19:28:18.907Z,14.70
2019-01-24T19:31:08.806Z,13.43
2019-01-24T19:33:58.539Z,15.43
2019-01-24T19:36:41.140Z,14.30
2019-01-24T19:39:31.213Z,14.23
2019-01-24T19:42:13.669Z,14.30
2019-01-24T19:45:03.524Z,15.67
2019-01-24T19:47:53.451Z,15.50
2019-01-24T19:50:43.313Z,15.63
2019-01-24T19:53:33.143Z,13.83
2019-01-24T19:56:22.922Z,14.07
2019-01-24T19:59:06.934Z,14.57
2019-01-24T20:01:56.815Z,15.33
2019-01-24T20:04:46.629Z,14.57
2019-01-24T20:07:36.490Z,14.33
2019-01-24T20:10:28.044Z,13.40
2019-01-24T20:13:17.819Z,14.23
2019-01-24T20:16:00.604Z,14.57
2019-01-24T20:18:50.441Z,14.30
2019-01-24T20:21:40.205Z,14.40
2019-01-24T20:24:29.992Z,14.83
2019-01-24T20:27:19.780Z,14.70
2019-01-24T20:33:00.635Z,14.57
2019-01-24T20:36:10.905Z,14.30
2019-01-24T20:39:07.223Z,15.33
2019-01-24T20:41:45.005Z,16.23
2019-01-24T20:44:34.895Z,16.07
2019-01-24T20:47:37.380Z,13.20
2019-01-24T20:50:19.780Z,14.83
2019-01-24T20:53:09.608Z,15.10
2019-01-24T20:55:52.531Z,14.37
2019-01-24T20:58:42.299Z,15.23
2019-01-24T21:01:24.546Z,14.07
2019-01-24T21:04:15.095Z,16.17
2019-01-24T21:06:58.770Z,16.27
2019-01-24T21:09:48.657Z,18.73
2019-01-24T21:12:30.516Z,15.30
2019-01-24T21:15:20.468Z,15.57
2019-01-24T21:18:02.773Z,15.33
2019-01-24T21:20:52.540Z,15.67
2019-01-24T21:23:36.462Z,15.17
2019-01-24T21:26:25.605Z,15.80
2019-01-24T21:29:07.957Z,14.83
2019-01-24T21:31:57.781Z,15.97
2019-01-24T21:34:40.469Z,14.93
2019-01-24T21:37:30.307Z,15.80
2019-01-24T21:40:32.891Z,16.43
2019-01-24T21:43:15.494Z,15.87
2019-01-24T21:46:05.597Z,15.27
2019-01-24T21:48:47.899Z,17.63
2019-01-24T21:54:41.562Z,20.13
2019-01-24T21:57:31.345Z,17.20
2019-01-24T22:00:14.439Z,26.77
2019-01-24T22:06:06.170Z,22.57
2019-01-24T22:08:49.251Z,29.63
2019-01-24T22:11:39.237Z,26.87
2019-01-24T22:17:35.191Z,41.20
2019-01-24T22:20:25.162Z,29.50
2019-01-24T22:23:15.008Z,69.17
2019-01-24T22:26:04.803Z,24.73
2019-01-24T22:28:54.880Z,18.43
2019-01-24T22:31:44.686Z,63.97
2019-01-24T22:37:33.891Z,23.07
2019-01-24T22:40:22.794Z,22.33
2019-01-24T22:43:05.693Z,25.03
2019-01-24T22:45:55.465Z,19.03
2019-01-24T22:48:45.223Z,17.97
2019-01-24T22:51:29.075Z,18.80
2019-01-24T22:54:19.232Z,17.70
2019-01-24T22:57:09.183Z,20.10
2019-01-24T22:59:58.980Z,20.47
2019-01-24T23:02:48.854Z,32.27
2019-01-24T23:05:39.185Z,18.83
2019-01-24T23:08:22.971Z,17.97
2019-01-24T23:11:13.111Z,16.90
2019-01-24T23:13:55.571Z,17.63
2019-01-24T23:16:45.375Z,17.93
2019-01-24T23:19:28.098Z,16.50
2019-01-24T23:22:17.916Z,16.17
2019-01-24T23:25:04.800Z,17.57
2019-01-24T23:27:55.018Z,16.53
2019-01-24T23:30:37.556Z,16.30
2019-01-24T23:33:27.417Z,16.37
2019-01-24T23:36:10.280Z,15.20
2019-01-24T23:39:00.340Z,16.27
2019-01-24T23:41:43.411Z,16.20
2019-01-24T23:44:33.242Z,15.87
2019-01-24T23:47:23.035Z,15.00
2019-01-24T23:50:05.748Z,16.07
2019-01-24T23:52:55.831Z,16.37
2019-01-24T23:55:45.634Z,15.37
2019-01-24T23:58:35.406Z,15.47
